sensor_id;sensor_type;location;lat;lon;timestamp;pressure;altitude;pressure_sealevel;temperature;humidity
58018;BME280;43810;50.860;19.226;2023-07-31T00:01:24;98142.75;;;17.75;94.55
58018;BME280;43810;50.860;19.226;2023-07-31T00:03:50;98145.81;;;17.73;94.64
58018;BME280;43810;50.860;19.226;2023-07-31T00:06:16;98150.03;;;17.74;94.76
58018;BME280;43810;50.860;19.226;2023-07-31T00:08:42;98145.06;;;17.76;94.32
58018;BME280;43810;50.860;19.226;2023-07-31T00:11:08;98146.59;;;17.70;94.87
58018;BME280;43810;50.860;19.226;2023-07-31T00:13:33;98146.97;;;17.65;95.05
58018;BME280;43810;50.860;19.226;2023-07-31T00:15:59;98152.75;;;17.63;95.10
58018;BME280;43810;50.860;19.226;2023-07-31T00:18:25;98155.41;;;17.60;95.00
58018;BME280;43810;50.860;19.226;2023-07-31T00:20:52;98155.00;;;17.51;95.27
58018;BME280;43810;50.860;19.226;2023-07-31T00:23:18;98155.03;;;17.54;95.72
58018;BME280;43810;50.860;19.226;2023-07-31T00:25:44;98160.41;;;17.65;95.04
58018;BME280;43810;50.860;19.226;2023-07-31T00:28:10;98158.50;;;17.69;94.91
58018;BME280;43810;50.860;19.226;2023-07-31T00:30:36;98151.97;;;17.84;94.25
58018;BME280;43810;50.860;19.226;2023-07-31T00:33:01;98164.59;;;17.98;93.87
58018;BME280;43810;50.860;19.226;2023-07-31T00:35:28;98170.78;;;17.95;93.76
58018;BME280;43810;50.860;19.226;2023-07-31T00:37:53;98160.00;;;17.88;93.97
58018;BME280;43810;50.860;19.226;2023-07-31T00:40:19;98162.34;;;17.82;94.23
58018;BME280;43810;50.860;19.226;2023-07-31T00:42:45;98171.13;;;17.86;93.72
58018;BME280;43810;50.860;19.226;2023-07-31T00:45:11;98166.53;;;17.94;92.76
58018;BME280;43810;50.860;19.226;2023-07-31T00:47:36;98170.75;;;17.91;91.86
58018;BME280;43810;50.860;19.226;2023-07-31T00:50:03;98168.09;;;17.84;91.92
58018;BME280;43810;50.860;19.226;2023-07-31T00:52:29;98165.41;;;17.84;91.78
58018;BME280;43810;50.860;19.226;2023-07-31T00:54:55;98171.16;;;17.65;92.89
58018;BME280;43810;50.860;19.226;2023-07-31T00:57:20;98171.50;;;17.53;93.19
58018;BME280;43810;50.860;19.226;2023-07-31T00:59:46;98167.31;;;17.59;92.72
58018;BME280;43810;50.860;19.226;2023-07-31T01:02:12;98171.91;;;17.55;92.67
58018;BME280;43810;50.860;19.226;2023-07-31T01:04:38;98165.00;;;17.54;92.26
58018;BME280;43810;50.860;19.226;2023-07-31T01:09:51;98176.91;;;17.56;92.03
58018;BME280;43810;50.860;19.226;2023-07-31T01:12:20;98180.72;;;17.55;91.75
58018;BME280;43810;50.860;19.226;2023-07-31T01:17:28;98188.81;;;17.66;90.51
58018;BME280;43810;50.860;19.226;2023-07-31T01:19:55;98185.75;;;17.68;90.64
58018;BME280;43810;50.860;19.226;2023-07-31T01:22:45;98192.66;;;17.76;89.74
58018;BME280;43810;50.860;19.226;2023-07-31T01:25:56;98191.88;;;17.79;89.06
58018;BME280;43810;50.860;19.226;2023-07-31T01:28:40;98193.03;;;17.74;88.49
58018;BME280;43810;50.860;19.226;2023-07-31T01:31:10;98200.31;;;17.77;88.33
58018;BME280;43810;50.860;19.226;2023-07-31T01:33:38;98194.97;;;17.70;88.02
58018;BME280;43810;50.860;19.226;2023-07-31T01:36:04;98198.78;;;17.58;88.67
58018;BME280;43810;50.860;19.226;2023-07-31T01:38:31;98196.47;;;17.50;88.81
58018;BME280;43810;50.860;19.226;2023-07-31T01:40:57;98206.44;;;17.53;88.23
58018;BME280;43810;50.860;19.226;2023-07-31T01:43:22;98211.81;;;17.49;88.49
58018;BME280;43810;50.860;19.226;2023-07-31T01:45:50;98207.97;;;17.47;88.64
58018;BME280;43810;50.860;19.226;2023-07-31T01:48:15;98213.34;;;17.47;88.23
58018;BME280;43810;50.860;19.226;2023-07-31T01:50:41;98213.31;;;17.43;88.35
58018;BME280;43810;50.860;19.226;2023-07-31T01:53:07;98205.25;;;17.25;88.68
58018;BME280;43810;50.860;19.226;2023-07-31T01:55:33;98204.47;;;17.25;89.21
58018;BME280;43810;50.860;19.226;2023-07-31T01:57:58;98202.56;;;17.25;89.13
58018;BME280;43810;50.860;19.226;2023-07-31T02:00:24;98204.09;;;17.26;89.19
58018;BME280;43810;50.860;19.226;2023-07-31T02:02:50;98204.81;;;17.16;89.31
58018;BME280;43810;50.860;19.226;2023-07-31T02:05:16;98210.19;;;17.16;89.55
58018;BME280;43810;50.860;19.226;2023-07-31T02:07:41;98204.81;;;17.16;89.71
58018;BME280;43810;50.860;19.226;2023-07-31T02:10:07;98213.28;;;17.15;89.44
58018;BME280;43810;50.860;19.226;2023-07-31T02:12:33;98212.47;;;17.07;89.82
58018;BME280;43810;50.860;19.226;2023-07-31T02:14:59;98209.03;;;17.00;90.52
58018;BME280;43810;50.860;19.226;2023-07-31T02:17:25;98205.53;;;16.96;90.58
58018;BME280;43810;50.860;19.226;2023-07-31T02:19:50;98207.09;;;16.97;90.71
58018;BME280;43810;50.860;19.226;2023-07-31T02:22:16;98207.50;;;17.02;90.45
58018;BME280;43810;50.860;19.226;2023-07-31T02:24:42;98210.94;;;17.03;90.31
58018;BME280;43810;50.860;19.226;2023-07-31T02:27:08;98219.34;;;16.94;91.03
58018;BME280;43810;50.860;19.226;2023-07-31T02:29:33;98222.03;;;16.94;90.98
58018;BME280;43810;50.860;19.226;2023-07-31T02:31:59;98219.72;;;16.92;91.28
58018;BME280;43810;50.860;19.226;2023-07-31T02:34:25;98221.22;;;16.79;91.45
58018;BME280;43810;50.860;19.226;2023-07-31T02:36:51;98223.94;;;16.93;91.04
58018;BME280;43810;50.860;19.226;2023-07-31T02:39:16;98236.94;;;16.84;91.31
58018;BME280;43810;50.860;19.226;2023-07-31T02:41:42;98241.13;;;16.82;91.18
58018;BME280;43810;50.860;19.226;2023-07-31T02:44:08;98243.03;;;16.81;91.47
58018;BME280;43810;50.860;19.226;2023-07-31T02:46:35;98240.38;;;16.78;91.62
58018;BME280;43810;50.860;19.226;2023-07-31T02:49:01;98245.34;;;16.76;91.63
58018;BME280;43810;50.860;19.226;2023-07-31T02:51:27;98247.97;;;16.65;92.26
58018;BME280;43810;50.860;19.226;2023-07-31T02:53:53;98247.22;;;16.72;92.33
58018;BME280;43810;50.860;19.226;2023-07-31T02:56:18;98244.53;;;16.72;92.40
58018;BME280;43810;50.860;19.226;2023-07-31T02:58:45;98244.16;;;16.73;92.79
58018;BME280;43810;50.860;19.226;2023-07-31T03:01:10;98239.22;;;16.75;92.53
58018;BME280;43810;50.860;19.226;2023-07-31T03:03:36;98238.44;;;16.75;92.41
58018;BME280;43810;50.860;19.226;2023-07-31T03:06:02;98247.66;;;16.81;92.13
58018;BME280;43810;50.860;19.226;2023-07-31T03:08:28;98240.72;;;16.73;92.59
58018;BME280;43810;50.860;19.226;2023-07-31T03:10:54;98249.56;;;16.77;92.14
58018;BME280;43810;50.860;19.226;2023-07-31T03:13:20;98241.47;;;16.66;92.57
58018;BME280;43810;50.860;19.226;2023-07-31T03:15:46;98243.00;;;16.71;92.33
58018;BME280;43810;50.860;19.226;2023-07-31T03:18:12;98249.50;;;16.66;92.71
58018;BME280;43810;50.860;19.226;2023-07-31T03:20:42;98252.94;;;16.63;92.98
58018;BME280;43810;50.860;19.226;2023-07-31T03:23:08;98261.38;;;16.65;92.71
58018;BME280;43810;50.860;19.226;2023-07-31T03:25:33;98259.88;;;16.71;92.63
58018;BME280;43810;50.860;19.226;2023-07-31T03:27:59;98260.25;;;16.73;92.10
58018;BME280;43810;50.860;19.226;2023-07-31T03:30:25;98257.97;;;16.68;92.57
58018;BME280;43810;50.860;19.226;2023-07-31T03:32:51;98268.69;;;16.72;92.66
58018;BME280;43810;50.860;19.226;2023-07-31T03:35:17;98271.38;;;16.72;92.37
58018;BME280;43810;50.860;19.226;2023-07-31T03:37:43;98264.13;;;16.76;92.40
58018;BME280;43810;50.860;19.226;2023-07-31T03:40:09;98263.31;;;16.68;92.28
58018;BME280;43810;50.860;19.226;2023-07-31T03:42:35;98271.75;;;16.70;92.32
58018;BME280;43810;50.860;19.226;2023-07-31T03:45:00;98268.53;;;16.50;92.59
58018;BME280;43810;50.860;19.226;2023-07-31T03:47:27;98264.31;;;16.49;92.84
58018;BME280;43810;50.860;19.226;2023-07-31T03:49:52;98270.47;;;16.50;92.83
58018;BME280;43810;50.860;19.226;2023-07-31T03:52:19;98262.00;;;16.48;93.00
58018;BME280;43810;50.860;19.226;2023-07-31T03:54:44;98267.00;;;16.49;92.72
58018;BME280;43810;50.860;19.226;2023-07-31T03:57:10;98267.81;;;16.53;92.11
58018;BME280;43810;50.860;19.226;2023-07-31T03:59:37;98275.91;;;16.57;91.75
58018;BME280;43810;50.860;19.226;2023-07-31T04:02:05;98288.53;;;16.60;91.27
58018;BME280;43810;50.860;19.226;2023-07-31T04:04:30;98288.56;;;16.64;91.15
58018;BME280;43810;50.860;19.226;2023-07-31T04:06:56;98293.91;;;16.56;91.70
58018;BME280;43810;50.860;19.226;2023-07-31T04:09:22;98294.28;;;16.55;92.01
58018;BME280;43810;50.860;19.226;2023-07-31T04:11:48;98300.06;;;16.64;92.18
58018;BME280;43810;50.860;19.226;2023-07-31T04:14:13;98303.22;;;16.77;92.05
58018;BME280;43810;50.860;19.226;2023-07-31T04:16:39;98307.16;;;16.97;90.25
58018;BME280;43810;50.860;19.226;2023-07-31T04:19:05;98309.88;;;17.08;89.18
58018;BME280;43810;50.860;19.226;2023-07-31T04:21:31;98303.00;;;17.17;89.00
58018;BME280;43810;50.860;19.226;2023-07-31T04:23:57;98302.28;;;17.27;87.96
58018;BME280;43810;50.860;19.226;2023-07-31T04:26:24;98302.34;;;17.38;87.49
58018;BME280;43810;50.860;19.226;2023-07-31T04:28:49;98303.09;;;17.35;87.18
58018;BME280;43810;50.860;19.226;2023-07-31T04:31:15;98307.31;;;17.40;86.73
58018;BME280;43810;50.860;19.226;2023-07-31T04:33:41;98314.66;;;17.50;85.56
58018;BME280;43810;50.860;19.226;2023-07-31T04:36:07;98314.25;;;17.48;85.48
58018;BME280;43810;50.860;19.226;2023-07-31T04:38:33;98313.44;;;17.37;85.50
58018;BME280;43810;50.860;19.226;2023-07-31T04:40:59;98314.59;;;17.43;84.92
58018;BME280;43810;50.860;19.226;2023-07-31T04:43:24;98310.38;;;17.42;84.77
58018;BME280;43810;50.860;19.226;2023-07-31T04:45:50;98313.81;;;17.39;84.72
58018;BME280;43810;50.860;19.226;2023-07-31T04:48:16;98318.81;;;17.40;85.22
58018;BME280;43810;50.860;19.226;2023-07-31T04:50:42;98313.09;;;17.45;84.91
58018;BME280;43810;50.860;19.226;2023-07-31T04:53:07;98306.94;;;17.52;84.76
58018;BME280;43810;50.860;19.226;2023-07-31T04:55:34;98301.97;;;17.54;84.44
58018;BME280;43810;50.860;19.226;2023-07-31T04:57:59;98308.88;;;17.51;84.80
58018;BME280;43810;50.860;19.226;2023-07-31T05:00:25;98307.03;;;17.73;83.34
58018;BME280;43810;50.860;19.226;2023-07-31T05:02:51;98297.78;;;17.63;83.84
58018;BME280;43810;50.860;19.226;2023-07-31T05:05:17;98298.53;;;17.57;84.12
58018;BME280;43810;50.860;19.226;2023-07-31T05:07:42;98292.03;;;17.65;83.93
58018;BME280;43810;50.860;19.226;2023-07-31T05:10:08;98299.38;;;17.79;83.80
58018;BME280;43810;50.860;19.226;2023-07-31T05:12:34;98288.25;;;17.84;82.96
58018;BME280;43810;50.860;19.226;2023-07-31T05:15:00;98293.63;;;17.84;83.30
58018;BME280;43810;50.860;19.226;2023-07-31T05:17:26;98298.63;;;17.82;83.83
58018;BME280;43810;50.860;19.226;2023-07-31T05:19:51;98296.28;;;17.87;83.60
58018;BME280;43810;50.860;19.226;2023-07-31T05:22:17;98302.47;;;17.84;83.95
58018;BME280;43810;50.860;19.226;2023-07-31T05:24:43;98307.44;;;17.89;84.04
58018;BME280;43810;50.860;19.226;2023-07-31T05:27:09;98304.75;;;17.93;83.89
58018;BME280;43810;50.860;19.226;2023-07-31T05:29:35;98314.75;;;17.99;83.34
58018;BME280;43810;50.860;19.226;2023-07-31T05:32:01;98317.06;;;17.94;83.03
58018;BME280;43810;50.860;19.226;2023-07-31T05:34:27;98322.03;;;17.81;82.92
58018;BME280;43810;50.860;19.226;2023-07-31T05:36:53;98308.56;;;17.71;83.90
58018;BME280;43810;50.860;19.226;2023-07-31T05:39:19;98313.16;;;17.74;83.89
58018;BME280;43810;50.860;19.226;2023-07-31T05:41:45;98308.56;;;17.67;84.19
58018;BME280;43810;50.860;19.226;2023-07-31T05:44:11;98310.50;;;17.77;84.50
58018;BME280;43810;50.860;19.226;2023-07-31T05:46:37;98300.53;;;17.88;84.34
58018;BME280;43810;50.860;19.226;2023-07-31T05:49:02;98302.84;;;18.11;83.06
58018;BME280;43810;50.860;19.226;2023-07-31T05:51:28;98305.91;;;18.27;82.18
58018;BME280;43810;50.860;19.226;2023-07-31T05:53:54;98307.06;;;18.33;82.11
58018;BME280;43810;50.860;19.226;2023-07-31T05:56:20;98305.91;;;18.42;81.75
58018;BME280;43810;50.860;19.226;2023-07-31T05:58:46;98305.91;;;18.52;80.80
58018;BME280;43810;50.860;19.226;2023-07-31T06:01:12;98306.66;;;18.70;79.70
58018;BME280;43810;50.860;19.226;2023-07-31T06:03:38;98310.84;;;18.79;80.00
58018;BME280;43810;50.860;19.226;2023-07-31T06:06:03;98307.75;;;18.94;79.60
58018;BME280;43810;50.860;19.226;2023-07-31T06:08:29;98304.97;;;19.19;78.51
58018;BME280;43810;50.860;19.226;2023-07-31T06:10:55;98303.00;;;19.27;78.18
58018;BME280;43810;50.860;19.226;2023-07-31T06:13:21;98306.72;;;19.47;77.01
58018;BME280;43810;50.860;19.226;2023-07-31T06:15:46;98308.28;;;19.48;75.86
58018;BME280;43810;50.860;19.226;2023-07-31T06:18:12;98306.38;;;19.45;76.80
58018;BME280;43810;50.860;19.226;2023-07-31T06:20:38;98299.81;;;19.50;76.62
58018;BME280;43810;50.860;19.226;2023-07-31T06:23:06;98304.38;;;19.63;76.94
58018;BME280;43810;50.860;19.226;2023-07-31T06:25:32;98306.22;;;19.77;76.12
58018;BME280;43810;50.860;19.226;2023-07-31T06:27:57;98306.84;;;19.99;75.64
58018;BME280;43810;50.860;19.226;2023-07-31T06:30:23;98300.50;;;20.20;74.46
58018;BME280;43810;50.860;19.226;2023-07-31T06:32:49;98309.09;;;20.52;73.81
58018;BME280;43810;50.860;19.226;2023-07-31T06:35:15;98306.56;;;20.75;71.75
58018;BME280;43810;50.860;19.226;2023-07-31T06:37:41;98303.31;;;20.91;71.04
58018;BME280;43810;50.860;19.226;2023-07-31T06:40:09;98296.78;;;20.88;71.65
58018;BME280;43810;50.860;19.226;2023-07-31T06:42:36;98294.75;;;20.96;70.63
58018;BME280;43810;50.860;19.226;2023-07-31T06:45:02;98306.97;;;21.08;70.68
58018;BME280;43810;50.860;19.226;2023-07-31T06:47:31;98299.56;;;21.46;69.45
58018;BME280;43810;50.860;19.226;2023-07-31T06:49:57;98302.75;;;21.68;68.10
58018;BME280;43810;50.860;19.226;2023-07-31T06:52:23;98309.75;;;21.88;66.29
58018;BME280;43810;50.860;19.226;2023-07-31T06:55:09;98303.66;;;22.11;67.23
58018;BME280;43810;50.860;19.226;2023-07-31T06:57:42;98306.59;;;22.44;65.55
58018;BME280;43810;50.860;19.226;2023-07-31T07:00:09;98305.91;;;22.59;65.52
58018;BME280;43810;50.860;19.226;2023-07-31T07:02:35;98296.31;;;22.78;63.78
58018;BME280;43810;50.860;19.226;2023-07-31T07:05:01;98299.78;;;22.79;63.95
58018;BME280;43810;50.860;19.226;2023-07-31T07:07:27;98299.22;;;22.87;61.35
58018;BME280;43810;50.860;19.226;2023-07-31T07:09:52;98295.53;;;22.97;61.27
58018;BME280;43810;50.860;19.226;2023-07-31T07:12:18;98290.84;;;23.01;59.75
58018;BME280;43810;50.860;19.226;2023-07-31T07:14:44;98292.44;;;22.99;60.59
58018;BME280;43810;50.860;19.226;2023-07-31T07:17:11;98293.75;;;22.91;58.51
58018;BME280;43810;50.860;19.226;2023-07-31T07:19:40;98306.28;;;22.61;59.17
58018;BME280;43810;50.860;19.226;2023-07-31T07:22:06;98306.06;;;22.52;60.85
58018;BME280;43810;50.860;19.226;2023-07-31T07:24:32;98302.81;;;22.61;59.32
58018;BME280;43810;50.860;19.226;2023-07-31T07:26:58;98302.00;;;22.41;57.46
58018;BME280;43810;50.860;19.226;2023-07-31T07:29:23;98303.31;;;22.33;61.45
58018;BME280;43810;50.860;19.226;2023-07-31T07:31:49;98306.03;;;22.33;62.28
58018;BME280;43810;50.860;19.226;2023-07-31T07:34:15;98308.94;;;22.42;60.68
58018;BME280;43810;50.860;19.226;2023-07-31T07:36:41;98305.75;;;22.47;61.76
58018;BME280;43810;50.860;19.226;2023-07-31T07:39:06;98317.69;;;22.73;61.43
58018;BME280;43810;50.860;19.226;2023-07-31T07:41:32;98313.84;;;22.70;60.48
58018;BME280;43810;50.860;19.226;2023-07-31T07:43:58;98309.84;;;22.78;59.57
58018;BME280;43810;50.860;19.226;2023-07-31T07:46:24;98305.81;;;22.66;57.83
58018;BME280;43810;50.860;19.226;2023-07-31T07:48:49;98308.31;;;22.77;57.05
58018;BME280;43810;50.860;19.226;2023-07-31T07:51:15;98309.22;;;22.90;57.70
58018;BME280;43810;50.860;19.226;2023-07-31T07:53:41;98308.06;;;22.91;57.71
58018;BME280;43810;50.860;19.226;2023-07-31T07:56:07;98309.63;;;22.69;56.91
58018;BME280;43810;50.860;19.226;2023-07-31T07:58:32;98313.81;;;22.50;58.42
58018;BME280;43810;50.860;19.226;2023-07-31T08:00:58;98298.53;;;22.83;57.22
58018;BME280;43810;50.860;19.226;2023-07-31T08:03:24;98307.97;;;23.34;56.91
58018;BME280;43810;50.860;19.226;2023-07-31T08:05:50;98311.31;;;23.78;53.53
58018;BME280;43810;50.860;19.226;2023-07-31T08:08:15;98302.84;;;24.08;51.71
58018;BME280;43810;50.860;19.226;2023-07-31T08:10:42;98309.41;;;23.95;53.51
58018;BME280;43810;50.860;19.226;2023-07-31T08:13:10;98308.19;;;24.28;52.54
58018;BME280;43810;50.860;19.226;2023-07-31T08:15:37;98313.34;;;24.39;48.74
58018;BME280;43810;50.860;19.226;2023-07-31T08:18:02;98303.94;;;24.27;47.93
58018;BME280;43810;50.860;19.226;2023-07-31T08:20:28;98295.72;;;23.98;49.62
58018;BME280;43810;50.860;19.226;2023-07-31T08:22:54;98304.28;;;23.97;50.86
58018;BME280;43810;50.860;19.226;2023-07-31T08:25:20;98303.59;;;24.25;50.74
58018;BME280;43810;50.860;19.226;2023-07-31T08:27:45;98302.59;;;24.52;49.52
58018;BME280;43810;50.860;19.226;2023-07-31T08:30:12;98311.66;;;24.61;49.66
58018;BME280;43810;50.860;19.226;2023-07-31T08:32:37;98312.59;;;24.83;48.01
58018;BME280;43810;50.860;19.226;2023-07-31T08:35:04;98311.63;;;24.90;47.04
58018;BME280;43810;50.860;19.226;2023-07-31T08:37:29;98304.38;;;24.87;48.27
58018;BME280;43810;50.860;19.226;2023-07-31T08:39:55;98306.53;;;24.92;47.53
58018;BME280;43810;50.860;19.226;2023-07-31T08:42:21;98299.22;;;25.18;49.24
58018;BME280;43810;50.860;19.226;2023-07-31T08:44:47;98298.75;;;25.48;46.85
58018;BME280;43810;50.860;19.226;2023-07-31T08:47:13;98305.81;;;25.59;45.82
58018;BME280;43810;50.860;19.226;2023-07-31T08:49:41;98307.78;;;25.58;44.78
58018;BME280;43810;50.860;19.226;2023-07-31T08:52:07;98299.75;;;25.13;45.63
58018;BME280;43810;50.860;19.226;2023-07-31T08:54:34;98302.06;;;24.86;45.75
58018;BME280;43810;50.860;19.226;2023-07-31T08:57:00;98299.94;;;24.64;47.11
58018;BME280;43810;50.860;19.226;2023-07-31T08:59:30;98296.47;;;24.31;48.54
58018;BME280;43810;50.860;19.226;2023-07-31T09:01:57;98294.78;;;24.54;46.80
58018;BME280;43810;50.860;19.226;2023-07-31T09:04:26;98301.94;;;24.76;46.78
58018;BME280;43810;50.860;19.226;2023-07-31T09:06:57;98305.94;;;25.13;46.36
58018;BME280;43810;50.860;19.226;2023-07-31T09:09:25;98305.59;;;25.53;45.12
58018;BME280;43810;50.860;19.226;2023-07-31T09:11:54;98300.69;;;25.61;45.67
58018;BME280;43810;50.860;19.226;2023-07-31T09:14:21;98302.44;;;26.05;44.05
58018;BME280;43810;50.860;19.226;2023-07-31T09:16:58;98303.53;;;26.08;44.83
58018;BME280;43810;50.860;19.226;2023-07-31T09:19:26;98292.44;;;26.15;45.48
58018;BME280;43810;50.860;19.226;2023-07-31T09:21:53;98303.19;;;26.53;46.60
58018;BME280;43810;50.860;19.226;2023-07-31T09:24:27;98296.53;;;26.88;45.65
58018;BME280;43810;50.860;19.226;2023-07-31T09:26:54;98298.41;;;27.22;40.43
58018;BME280;43810;50.860;19.226;2023-07-31T09:29:21;98283.84;;;27.16;40.43
58018;BME280;43810;50.860;19.226;2023-07-31T09:31:46;98284.88;;;26.88;41.70
58018;BME280;43810;50.860;19.226;2023-07-31T09:34:12;98282.59;;;26.65;43.17
58018;BME280;43810;50.860;19.226;2023-07-31T09:36:44;98284.44;;;26.33;44.23
58018;BME280;43810;50.860;19.226;2023-07-31T09:39:11;98288.84;;;26.40;42.90
58018;BME280;43810;50.860;19.226;2023-07-31T09:41:39;98289.06;;;26.80;41.33
58018;BME280;43810;50.860;19.226;2023-07-31T09:44:05;98284.72;;;26.48;42.50
58018;BME280;43810;50.860;19.226;2023-07-31T09:46:31;98282.94;;;26.07;44.97
58018;BME280;43810;50.860;19.226;2023-07-31T09:49:17;98290.22;;;26.70;43.11
58018;BME280;43810;50.860;19.226;2023-07-31T09:51:43;98289.88;;;27.11;41.10
58018;BME280;43810;50.860;19.226;2023-07-31T09:54:13;98286.31;;;27.54;42.38
58018;BME280;43810;50.860;19.226;2023-07-31T09:56:45;98285.63;;;28.12;42.81
58018;BME280;43810;50.860;19.226;2023-07-31T09:59:14;98288.66;;;28.14;41.66
58018;BME280;43810;50.860;19.226;2023-07-31T10:01:41;98286.69;;;28.06;41.25
58018;BME280;43810;50.860;19.226;2023-07-31T10:04:11;98284.47;;;27.42;41.88
58018;BME280;43810;50.860;19.226;2023-07-31T10:06:37;98275.91;;;27.09;42.85
58018;BME280;43810;50.860;19.226;2023-07-31T10:09:10;98276.84;;;27.06;44.22
58018;BME280;43810;50.860;19.226;2023-07-31T10:12:00;98277.13;;;26.65;45.53
58018;BME280;43810;50.860;19.226;2023-07-31T10:14:28;98273.44;;;26.58;41.68
58018;BME280;43810;50.860;19.226;2023-07-31T10:16:54;98265.47;;;26.64;42.91
58018;BME280;43810;50.860;19.226;2023-07-31T10:19:22;98261.44;;;26.90;42.84
58018;BME280;43810;50.860;19.226;2023-07-31T10:21:48;98243.19;;;27.31;44.26
58018;BME280;43810;50.860;19.226;2023-07-31T10:24:15;98244.53;;;27.66;40.68
58018;BME280;43810;50.860;19.226;2023-07-31T10:26:45;98238.78;;;27.64;41.49
58018;BME280;43810;50.860;19.226;2023-07-31T10:29:11;98241.47;;;27.95;39.78
58018;BME280;43810;50.860;19.226;2023-07-31T10:31:38;98236.03;;;28.23;42.56
58018;BME280;43810;50.860;19.226;2023-07-31T10:34:05;98230.25;;;28.30;42.82
58018;BME280;43810;50.860;19.226;2023-07-31T10:36:30;98228.78;;;28.56;40.29
58018;BME280;43810;50.860;19.226;2023-07-31T10:38:56;98239.94;;;28.03;41.51
58018;BME280;43810;50.860;19.226;2023-07-31T10:41:31;98236.56;;;27.90;42.47
58018;BME280;43810;50.860;19.226;2023-07-31T10:44:00;98227.19;;;28.00;40.79
58018;BME280;43810;50.860;19.226;2023-07-31T10:46:28;98229.06;;;28.31;39.93
58018;BME280;43810;50.860;19.226;2023-07-31T10:48:58;98225.06;;;27.95;42.08
58018;BME280;43810;50.860;19.226;2023-07-31T10:51:32;98230.84;;;28.16;41.33
58018;BME280;43810;50.860;19.226;2023-07-31T10:54:20;98221.28;;;28.48;38.70
58018;BME280;43810;50.860;19.226;2023-07-31T10:56:45;98212.78;;;28.36;39.21
58018;BME280;43810;50.860;19.226;2023-07-31T10:59:14;98212.34;;;28.38;39.13
58018;BME280;43810;50.860;19.226;2023-07-31T11:01:56;98212.50;;;28.34;39.37
58018;BME280;43810;50.860;19.226;2023-07-31T11:04:28;98202.16;;;28.02;38.29
58018;BME280;43810;50.860;19.226;2023-07-31T11:06:57;98211.94;;;27.63;40.81
58018;BME280;43810;50.860;19.226;2023-07-31T11:09:27;98196.78;;;27.71;41.25
58018;BME280;43810;50.860;19.226;2023-07-31T11:11:55;98202.03;;;27.96;39.32
58018;BME280;43810;50.860;19.226;2023-07-31T11:14:21;98204.75;;;28.15;37.67
58018;BME280;43810;50.860;19.226;2023-07-31T11:16:50;98204.88;;;27.44;38.83
58018;BME280;43810;50.860;19.226;2023-07-31T11:19:26;98196.59;;;27.65;40.12
58018;BME280;43810;50.860;19.226;2023-07-31T11:21:52;98196.34;;;27.73;36.46
58018;BME280;43810;50.860;19.226;2023-07-31T11:24:19;98201.28;;;27.56;40.11
58018;BME280;43810;50.860;19.226;2023-07-31T11:26:52;98196.91;;;27.67;37.21
58018;BME280;43810;50.860;19.226;2023-07-31T11:29:19;98201.03;;;27.72;39.89
58018;BME280;43810;50.860;19.226;2023-07-31T11:31:46;98187.53;;;27.78;37.44
58018;BME280;43810;50.860;19.226;2023-07-31T11:34:12;98190.34;;;27.38;36.61
58018;BME280;43810;50.860;19.226;2023-07-31T11:36:38;98187.63;;;27.07;38.82
58018;BME280;43810;50.860;19.226;2023-07-31T11:39:05;98174.44;;;27.05;38.52
58018;BME280;43810;50.860;19.226;2023-07-31T11:41:31;98170.00;;;26.98;39.13
58018;BME280;43810;50.860;19.226;2023-07-31T11:44:01;98173.03;;;26.70;40.28
58018;BME280;43810;50.860;19.226;2023-07-31T11:46:30;98174.13;;;26.72;40.43
58018;BME280;43810;50.860;19.226;2023-07-31T11:49:00;98173.59;;;26.43;39.84
58018;BME280;43810;50.860;19.226;2023-07-31T11:51:27;98178.63;;;26.10;42.04
58018;BME280;43810;50.860;19.226;2023-07-31T11:53:57;98168.81;;;25.65;43.52
58018;BME280;43810;50.860;19.226;2023-07-31T11:56:25;98167.13;;;25.46;43.57
58018;BME280;43810;50.860;19.226;2023-07-31T11:59:01;98172.94;;;25.70;41.97
58018;BME280;43810;50.860;19.226;2023-07-31T12:01:29;98176.81;;;25.94;42.68
58018;BME280;43810;50.860;19.226;2023-07-31T12:03:55;98168.19;;;26.52;39.07
58018;BME280;43810;50.860;19.226;2023-07-31T12:06:22;98156.03;;;26.96;38.37
58018;BME280;43810;50.860;19.226;2023-07-31T12:09:03;98161.56;;;27.55;42.08
58018;BME280;43810;50.860;19.226;2023-07-31T12:11:29;98165.91;;;28.01;38.34
58018;BME280;43810;50.860;19.226;2023-07-31T12:13:55;98156.22;;;28.10;36.98
58018;BME280;43810;50.860;19.226;2023-07-31T12:16:20;98146.97;;;28.07;39.34
58018;BME280;43810;50.860;19.226;2023-07-31T12:18:49;98142.41;;;28.22;36.17
58018;BME280;43810;50.860;19.226;2023-07-31T12:21:15;98140.09;;;28.12;36.72
58018;BME280;43810;50.860;19.226;2023-07-31T12:23:44;98138.00;;;28.07;35.69
58018;BME280;43810;50.860;19.226;2023-07-31T12:26:13;98135.53;;;27.81;36.66
58018;BME280;43810;50.860;19.226;2023-07-31T12:28:43;98134.59;;;27.66;37.20
58018;BME280;43810;50.860;19.226;2023-07-31T12:31:14;98125.69;;;27.16;38.00
58018;BME280;43810;50.860;19.226;2023-07-31T12:33:41;98124.38;;;26.90;38.49
58018;BME280;43810;50.860;19.226;2023-07-31T12:36:09;98129.28;;;26.73;39.28
58018;BME280;43810;50.860;19.226;2023-07-31T12:38:35;98117.78;;;26.47;42.29
58018;BME280;43810;50.860;19.226;2023-07-31T12:41:01;98121.19;;;26.39;41.44
58018;BME280;43810;50.860;19.226;2023-07-31T12:43:27;98119.88;;;26.43;40.83
58018;BME280;43810;50.860;19.226;2023-07-31T12:45:56;98124.16;;;26.53;44.10
58018;BME280;43810;50.860;19.226;2023-07-31T12:48:22;98122.53;;;26.87;41.31
58018;BME280;43810;50.860;19.226;2023-07-31T12:50:48;98111.81;;;26.92;40.55
58018;BME280;43810;50.860;19.226;2023-07-31T12:53:15;98117.16;;;27.05;40.19
58018;BME280;43810;50.860;19.226;2023-07-31T12:55:41;98125.03;;;27.03;41.16